Time;durP1;ratioP1;P1;durP2;ratioP2;P2;SDS_P1;SDS_P2;PMS_P1;PMS_P2;Temp;Humidity;BMP_temperature;BMP_pressure;BME280_temperature;BME280_humidity;BME280_pressure;Samples;Min_cycle;Max_cycle;Signal;HPM_P1;HPM_P2
2022/05/08 00:00:28;;;;;;;9.77;5.70;;;16.80;93.40;;;;;;4943977;28;20042;-86
2022/05/08 00:02:55;;;;;;;8.60;5.57;;;16.70;93.40;;;;;;4976648;28;20029;-86
2022/05/08 00:05:21;;;;;;;11.38;6.00;;;16.70;93.40;;;;;;4959379;28;20443;-87
2022/05/08 00:07:47;;;;;;;10.40;5.93;;;16.60;93.40;;;;;;4942552;28;20023;-86
2022/05/08 00:10:13;;;;;;;10.38;5.70;;;16.60;93.50;;;;;;4958322;28;20386;-87
2022/05/08 00:12:38;;;;;;;10.63;5.90;;;16.60;93.40;;;;;;4942666;28;20121;-86
2022/05/08 00:15:05;;;;;;;10.57;5.97;;;16.50;93.40;;;;;;4958340;28;20439;-86
2022/05/08 00:17:34;;;;;;;11.00;6.40;;;16.50;93.40;;;;;;4974505;28;20039;-86
2022/05/08 00:20:02;;;;;;;11.48;6.55;;;16.50;93.40;;;;;;4975185;28;20027;-86
2022/05/08 00:22:28;;;;;;;14.45;6.63;;;16.50;93.50;;;;;;4974516;28;20872;-86
2022/05/08 00:24:53;;;;;;;10.65;6.88;;;16.40;93.50;;;;;;4977755;28;20035;-86
2022/05/08 00:27:21;;;;;;;13.80;6.50;;;16.40;93.80;;;;;;4960569;28;20027;-86
2022/05/08 00:29:47;;;;;;;12.45;6.70;;;16.30;93.50;;;;;;4958790;28;20030;-86
2022/05/08 00:32:12;;;;;;;9.45;6.90;;;16.30;93.60;;;;;;4959346;28;20386;-86
2022/05/08 00:34:38;;;;;;;15.00;6.88;;;16.30;93.60;;;;;;4975854;28;20030;-86
2022/05/08 00:37:05;;;;;;;11.60;6.53;;;16.20;93.50;;;;;;4960355;28;20122;-86
2022/05/08 00:39:32;;;;;;;13.20;7.30;;;16.20;93.60;;;;;;4961801;28;20030;-86
2022/05/08 00:41:58;;;;;;;11.93;6.80;;;16.10;93.60;;;;;;4977766;28;20026;-85
2022/05/08 00:44:24;;;;;;;13.38;7.20;;;16.10;93.70;;;;;;4975949;28;20038;-85
2022/05/08 00:46:50;;;;;;;14.60;7.55;;;16.10;93.80;;;;;;4976173;28;20035;-86
2022/05/08 01:20:35;;;;;;;12.70;6.47;;;15.60;93.90;;;;;;6105902;23;1366164;-85
2022/05/08 01:23:05;;;;;;;15.32;6.25;;;15.60;93.80;;;;;;6138729;23;20063;-85
2022/05/08 01:25:33;;;;;;;19.65;6.70;;;15.50;93.70;;;;;;6164020;23;19998;-85
2022/05/08 01:27:59;;;;;;;14.13;5.68;;;15.60;93.80;;;;;;6139190;23;20064;-85
2022/05/08 01:30:25;;;;;;;14.48;5.55;;;15.50;93.70;;;;;;6139540;23;20006;-85
2022/05/08 01:32:51;;;;;;;16.85;5.90;;;15.50;93.60;;;;;;6139769;23;20316;-85
2022/05/08 01:35:16;;;;;;;12.57;5.20;;;15.50;93.50;;;;;;6115269;23;20036;-85
2022/05/08 01:37:42;;;;;;;18.02;5.40;;;15.40;93.50;;;;;;6138122;23;20009;-86
2022/05/08 01:40:08;;;;;;;14.77;5.00;;;15.40;93.50;;;;;;6114013;23;20323;-86
2022/05/08 01:42:34;;;;;;;15.13;4.55;;;15.30;93.40;;;;;;6138371;23;20485;-85
2022/05/08 01:45:00;;;;;;;15.30;5.35;;;15.30;93.40;;;;;;6114066;23;20085;-84
2022/05/08 01:50:10;;;;;;;13.00;4.93;;;15.30;93.30;;;;;;6164291;23;20021;-85
2022/05/08 01:52:35;;;;;;;20.05;5.88;;;15.20;93.20;;;;;;6138024;23;20009;-85
2022/05/08 01:55:02;;;;;;;13.88;5.78;;;15.20;93.20;;;;;;6138180;23;20431;-85
2022/05/08 01:57:28;;;;;;;15.30;5.13;;;15.20;93.10;;;;;;6138094;23;20060;-85
2022/05/08 01:59:53;;;;;;;18.25;5.32;;;15.10;93.00;;;;;;6134318;23;20005;-85
2022/05/08 02:02:19;;;;;;;17.52;5.07;;;15.20;92.90;;;;;;6131658;23;20086;-85
2022/05/08 02:04:45;;;;;;;16.42;5.05;;;15.10;92.90;;;;;;6107429;23;20439;-85
2022/05/08 02:07:11;;;;;;;22.25;5.25;;;15.00;92.90;;;;;;6131831;23;20073;-85
2022/05/08 02:09:37;;;;;;;15.23;4.35;;;15.00;93.00;;;;;;6106979;23;20037;-85
2022/05/08 02:12:04;;;;;;;15.73;4.07;;;15.00;93.00;;;;;;6107152;23;20471;-85
2022/05/08 02:14:29;;;;;;;16.05;5.18;;;15.00;93.00;;;;;;6106774;23;20387;-85
2022/05/08 02:16:55;;;;;;;17.65;4.80;;;14.90;93.20;;;;;;6131875;23;20005;-85
2022/05/08 02:19:21;;;;;;;15.73;4.55;;;14.90;92.90;;;;;;6140885;23;20063;-85
2022/05/08 02:21:47;;;;;;;15.93;4.95;;;14.90;92.90;;;;;;6131600;23;20001;-85
2022/05/08 02:24:13;;;;;;;18.77;5.03;;;14.80;92.90;;;;;;6156103;23;20013;-85
2022/05/08 02:26:39;;;;;;;13.93;4.63;;;14.80;93.00;;;;;;6131257;23;20014;-84
2022/05/08 02:29:04;;;;;;;14.25;4.45;;;14.80;93.00;;;;;;6131399;23;20009;-85
2022/05/08 02:31:30;;;;;;;15.70;5.10;;;14.80;93.00;;;;;;6155694;23;20005;-85
2022/05/08 02:33:57;;;;;;;17.88;5.15;;;14.70;93.00;;;;;;6156060;23;20009;-85
2022/05/08 02:36:22;;;;;;;21.73;5.38;;;14.70;93.10;;;;;;6155846;23;20444;-86
2022/05/08 02:38:48;;;;;;;22.95;5.30;;;14.70;93.10;;;;;;6130818;23;20195;-84
2022/05/08 02:41:14;;;;;;;16.58;4.60;;;14.70;93.00;;;;;;6131445;23;20009;-85
2022/05/08 02:43:39;;;;;;;19.98;4.93;;;14.60;92.90;;;;;;6155848;23;20060;-85
2022/05/08 02:46:05;;;;;;;14.25;4.18;;;14.60;93.00;;;;;;6157449;23;20320;-85
2022/05/08 02:48:31;;;;;;;15.57;4.80;;;14.60;93.00;;;;;;6130666;23;20009;-85
2022/05/08 02:50:57;;;;;;;17.48;4.82;;;14.50;93.10;;;;;;6131312;23;20006;-84
2022/05/08 02:53:23;;;;;;;20.23;4.50;;;14.50;93.10;;;;;;6155899;23;20033;-85
2022/05/08 02:58:32;;;;;;;19.48;4.43;;;14.50;93.20;;;;;;6155870;23;20024;-86
2022/05/08 03:00:59;;;;;;;16.63;4.13;;;14.40;93.20;;;;;;6131089;23;20368;-85
2022/05/08 03:03:25;;;;;;;17.80;4.95;;;14.40;93.20;;;;;;6155689;23;20008;-85
2022/05/08 03:05:52;;;;;;;20.27;4.35;;;14.40;93.20;;;;;;6130324;23;20014;-84
2022/05/08 03:08:19;;;;;;;18.77;4.05;;;14.30;93.10;;;;;;6157152;23;20005;-84
2022/05/08 03:13:37;;;;;;;17.88;4.43;;;14.30;93.30;;;;;;6155428;23;20024;-85
2022/05/08 03:16:05;;;;;;;18.58;4.13;;;14.30;93.40;;;;;;6155388;23;20024;-85
2022/05/08 03:18:31;;;;;;;17.75;4.22;;;14.20;93.40;;;;;;6155170;23;20029;-85
2022/05/08 03:20:56;;;;;;;18.15;4.70;;;14.30;93.40;;;;;;6131351;23;20143;-86
2022/05/08 03:23:22;;;;;;;16.05;4.38;;;14.20;93.40;;;;;;6131265;23;20029;-85
2022/05/08 03:25:48;;;;;;;18.38;4.93;;;14.20;93.40;;;;;;6157007;23;20001;-85
2022/05/08 03:28:15;;;;;;;17.13;3.70;;;14.10;93.40;;;;;;6106722;23;20020;-85
2022/05/08 03:30:42;;;;;;;17.23;3.78;;;14.10;93.30;;;;;;6156921;23;20005;-85
2022/05/08 03:33:09;;;;;;;16.10;4.20;;;14.10;93.20;;;;;;6131174;23;20458;-85
2022/05/08 03:35:35;;;;;;;16.95;3.90;;;14.10;93.30;;;;;;6156755;23;20002;-85
2022/05/08 03:38:01;;;;;;;16.05;3.70;;;14.00;93.30;;;;;;6106340;23;20033;-85
2022/05/08 03:40:27;;;;;;;16.13;4.60;;;14.00;93.30;;;;;;6106676;23;20049;-85
2022/05/08 03:42:53;;;;;;;16.02;4.45;;;14.00;93.30;;;;;;6106364;23;20005;-85
2022/05/08 03:45:19;;;;;;;18.42;4.10;;;14.00;93.20;;;;;;6106252;23;20044;-85
2022/05/08 03:47:44;;;;;;;17.45;4.03;;;13.90;93.20;;;;;;6106384;23;20006;-85
2022/05/08 03:50:10;;;;;;;17.48;3.85;;;13.90;93.30;;;;;;6131095;23;20006;-85
2022/05/08 03:52:36;;;;;;;18.75;3.90;;;13.90;93.40;;;;;;6130939;23;20010;-85
2022/05/08 03:55:02;;;;;;;22.65;4.80;;;13.90;93.40;;;;;;6157022;23;20007;-85
2022/05/08 03:57:28;;;;;;;17.42;4.18;;;13.90;93.40;;;;;;6130854;23;20020;-85
2022/05/08 03:59:54;;;;;;;17.38;3.65;;;13.80;93.30;;;;;;6106473;23;20005;-86
2022/05/08 04:02:20;;;;;;;19.80;4.18;;;13.80;93.30;;;;;;6156748;23;20005;-85
2022/05/08 04:04:45;;;;;;;17.35;4.55;;;13.80;93.40;;;;;;6130902;23;20424;-86
2022/05/08 04:07:12;;;;;;;14.73;3.83;;;13.70;93.40;;;;;;6130639;23;20324;-86
2022/05/08 04:09:38;;;;;;;20.17;4.25;;;13.70;93.40;;;;;;6106370;23;20028;-86
2022/05/08 04:12:04;;;;;;;14.77;4.13;;;13.70;93.40;;;;;;6156671;23;20427;-86
2022/05/08 04:14:29;;;;;;;18.25;3.60;;;13.70;93.40;;;;;;6106522;23;20005;-86
2022/05/08 04:16:55;;;;;;;18.58;4.80;;;13.70;93.50;;;;;;6109000;23;20005;-86
2022/05/08 04:19:21;;;;;;;22.30;4.32;;;13.60;93.60;;;;;;6146013;23;20017;-86
2022/05/08 04:21:46;;;;;;;20.75;4.97;;;13.60;93.60;;;;;;6159118;23;20001;-86
2022/05/08 04:24:18;;;;;;;19.90;3.83;;;13.60;93.60;;;;;;6133960;23;20440;-85
2022/05/08 04:26:47;;;;;;;18.50;4.15;;;13.60;93.70;;;;;;6136972;23;20012;-85
2022/05/08 04:29:13;;;;;;;17.73;3.40;;;13.60;93.70;;;;;;6158047;23;20028;-85
2022/05/08 04:31:38;;;;;;;21.05;3.80;;;13.50;93.80;;;;;;6163109;23;20001;-91
2022/05/08 04:34:04;;;;;;;19.65;4.45;;;13.50;93.90;;;;;;6179512;23;19996;-84
2022/05/08 04:36:30;;;;;;;18.67;3.80;;;13.50;94.00;;;;;;6155835;23;19998;-86
2022/05/08 04:38:56;;;;;;;19.58;4.30;;;13.50;94.00;;;;;;6156813;23;20005;-86
2022/05/08 04:41:22;;;;;;;17.98;3.83;;;13.40;94.00;;;;;;6155633;23;20006;-86
2022/05/08 04:43:47;;;;;;;15.43;4.30;;;13.40;94.10;;;;;;6130215;23;20009;-86
2022/05/08 04:46:13;;;;;;;17.35;3.85;;;13.40;94.10;;;;;;6130277;23;20069;-86
2022/05/08 04:48:42;;;;;;;18.90;4.32;;;13.40;94.10;;;;;;6154774;23;20436;-87
2022/05/08 04:51:08;;;;;;;20.55;4.45;;;13.30;94.10;;;;;;6154936;23;20093;-86
2022/05/08 04:53:33;;;;;;;15.88;3.50;;;13.30;94.10;;;;;;6156593;23;20357;-86
2022/05/08 04:55:59;;;;;;;21.17;4.53;;;13.30;94.10;;;;;;6130285;23;20012;-86
2022/05/08 04:58:29;;;;;;;14.95;3.90;;;13.30;94.20;;;;;;6156599;23;20293;-86
2022/05/08 05:00:58;;;;;;;24.08;4.20;;;13.20;94.20;;;;;;6154659;23;20435;-86
2022/05/08 05:03:24;;;;;;;22.30;4.40;;;13.20;94.20;;;;;;6156312;23;20117;-86
2022/05/08 05:05:50;;;;;;;19.05;4.43;;;13.20;94.30;;;;;;6155497;23;20012;-86
2022/05/08 05:08:15;;;;;;;19.08;4.03;;;13.20;94.40;;;;;;6154860;23;20018;-86
2022/05/08 05:10:41;;;;;;;20.63;4.32;;;13.10;94.50;;;;;;6131231;23;20088;-86
2022/05/08 05:13:07;;;;;;;18.23;3.80;;;13.10;94.50;;;;;;6131359;23;20002;-86
2022/05/08 05:15:32;;;;;;;21.00;5.13;;;13.10;94.50;;;;;;6131087;23;20013;-86
2022/05/08 05:18:01;;;;;;;15.63;3.38;;;13.10;94.50;;;;;;6156387;23;20005;-86
2022/05/08 05:20:27;;;;;;;15.85;3.53;;;13.10;94.60;;;;;;6132237;23;20092;-86
2022/05/08 05:22:52;;;;;;;15.50;3.40;;;13.10;94.70;;;;;;6155380;23;20080;-85
2022/05/08 05:25:18;;;;;;;13.38;3.15;;;13.10;94.80;;;;;;6155498;23;20009;-86
2022/05/08 05:27:45;;;;;;;20.40;4.40;;;13.10;95.10;;;;;;6130930;23;20036;-87
2022/05/08 05:30:11;;;;;;;15.82;3.53;;;13.10;94.80;;;;;;6131544;23;20080;-86
2022/05/08 05:32:39;;;;;;;14.93;4.10;;;13.10;94.80;;;;;;6155511;23;20012;-86
2022/05/08 05:35:05;;;;;;;19.05;3.75;;;13.00;94.90;;;;;;6131824;23;20009;-86
2022/05/08 05:37:31;;;;;;;16.25;3.67;;;13.10;95.00;;;;;;6157244;23;20096;-86
2022/05/08 05:39:56;;;;;;;13.10;3.75;;;13.10;95.10;;;;;;6131977;23;20080;-86
2022/05/08 05:42:23;;;;;;;18.95;4.38;;;13.00;95.10;;;;;;6156501;23;20033;-86
2022/05/08 05:44:49;;;;;;;14.95;3.47;;;13.10;95.20;;;;;;6157612;23;20084;-86
2022/05/08 05:49:59;;;;;;;22.00;3.85;;;13.10;95.40;;;;;;6156600;23;20462;-85
2022/05/08 05:52:24;;;;;;;16.63;3.60;;;13.10;95.40;;;;;;6132169;23;20002;-86
2022/05/08 05:54:50;;;;;;;15.40;3.53;;;13.10;95.40;;;;;;6156602;23;20001;-86
2022/05/08 05:57:16;;;;;;;17.33;3.83;;;13.00;95.20;;;;;;6156984;23;20024;-86
2022/05/08 05:59:41;;;;;;;13.10;3.05;;;13.10;95.30;;;;;;6156791;23;20033;-86
2022/05/08 06:02:07;;;;;;;18.45;3.60;;;13.10;95.20;;;;;;6156555;23;20002;-86
2022/05/08 06:04:33;;;;;;;15.18;3.40;;;13.10;95.20;;;;;;6132555;23;20080;-86
2022/05/08 06:06:59;;;;;;;15.07;3.20;;;13.10;95.20;;;;;;6131700;23;20420;-86
2022/05/08 06:09:25;;;;;;;15.27;4.30;;;13.10;95.20;;;;;;6156138;23;20040;-86
2022/05/08 06:11:52;;;;;;;16.00;3.35;;;13.10;95.10;;;;;;6156730;23;20001;-86
2022/05/08 06:14:18;;;;;;;13.02;3.08;;;13.10;95.00;;;;;;6132840;23;20009;-86
2022/05/08 06:16:44;;;;;;;16.60;3.90;;;13.10;95.00;;;;;;6131565;23;20084;-86
2022/05/08 06:19:10;;;;;;;21.50;3.92;;;13.10;95.00;;;;;;6157442;23;20076;-86
2022/05/08 06:21:36;;;;;;;13.00;3.30;;;13.10;94.90;;;;;;6132703;23;20009;-85
2022/05/08 06:24:01;;;;;;;15.45;3.08;;;13.10;94.60;;;;;;6131158;23;20020;-86
2022/05/08 06:26:27;;;;;;;23.63;4.32;;;13.10;94.50;;;;;;6107174;23;20102;-86
2022/05/08 06:28:55;;;;;;;16.45;2.95;;;13.20;94.50;;;;;;6131330;23;20020;-86
2022/05/08 06:31:21;;;;;;;16.85;4.03;;;13.10;94.60;;;;;;6131337;23;20006;-86
2022/05/08 06:33:46;;;;;;;12.52;2.92;;;13.20;94.70;;;;;;6131282;23;20013;-86
2022/05/08 06:36:12;;;;;;;13.02;3.45;;;13.20;94.70;;;;;;6131379;23;20006;-87
2022/05/08 06:38:38;;;;;;;13.80;2.95;;;13.20;94.70;;;;;;6130961;23;20336;-85
2022/05/08 06:41:04;;;;;;;15.43;2.88;;;13.20;94.70;;;;;;6106554;23;20006;-86
2022/05/08 06:43:30;;;;;;;20.20;3.58;;;13.30;94.80;;;;;;6132139;23;20313;-85
2022/05/08 06:45:55;;;;;;;13.88;3.30;;;13.30;94.90;;;;;;6130927;23;20053;-86
2022/05/08 06:48:21;;;;;;;18.17;3.50;;;13.30;94.90;;;;;;6106568;23;20089;-86
2022/05/08 06:50:47;;;;;;;13.40;3.08;;;13.40;94.90;;;;;;6131583;23;20096;-86
2022/05/08 06:53:12;;;;;;;14.30;3.38;;;13.40;94.90;;;;;;6106818;23;20037;-86
2022/05/08 06:55:39;;;;;;;15.30;2.72;;;13.50;95.00;;;;;;6131601;23;20002;-86
2022/05/08 06:58:05;;;;;;;15.18;3.00;;;13.50;95.10;;;;;;6131598;23;20009;-86
2022/05/08 07:03:15;;;;;;;12.73;2.45;;;13.60;95.10;;;;;;6156866;23;20064;-85
2022/05/08 07:05:48;;;;;;;12.23;2.78;;;13.60;95.00;;;;;;6106929;23;20356;-85
2022/05/08 07:08:14;;;;;;;14.73;2.92;;;13.60;94.80;;;;;;6107037;23;20041;-85
2022/05/08 07:10:40;;;;;;;16.83;3.20;;;13.70;94.80;;;;;;6158387;23;20009;-85
2022/05/08 07:13:06;;;;;;;11.75;2.97;;;13.70;94.70;;;;;;6158719;23;20002;-86
2022/05/08 07:15:32;;;;;;;13.30;2.47;;;13.80;94.70;;;;;;6132597;23;20008;-85
2022/05/08 07:17:58;;;;;;;11.10;2.55;;;13.80;94.70;;;;;;6131175;23;20017;-86
2022/05/08 07:20:23;;;;;;;12.70;2.80;;;13.90;94.60;;;;;;6150913;23;20052;-85
2022/05/08 07:22:49;;;;;;;10.38;2.45;;;14.00;94.70;;;;;;6157218;23;20358;-85
2022/05/08 07:25:15;;;;;;;14.02;3.20;;;14.10;94.70;;;;;;6131166;23;20336;-85
2022/05/08 07:27:42;;;;;;;11.18;2.53;;;14.10;94.60;;;;;;6130763;23;20045;-85
2022/05/08 07:30:08;;;;;;;13.60;3.40;;;14.10;94.50;;;;;;6157674;23;20012;-86
2022/05/08 07:32:35;;;;;;;18.17;3.10;;;14.20;94.20;;;;;;6156661;23;19998;-85
2022/05/08 07:37:45;;;;;;;15.80;3.63;;;14.30;93.90;;;;;;6157005;23;20109;-86
2022/05/08 07:40:12;;;;;;;12.02;3.03;;;14.40;93.90;;;;;;6132354;23;20029;-85
2022/05/08 07:42:38;;;;;;;11.85;2.60;;;14.50;93.80;;;;;;6158348;23;20005;-85
2022/05/08 07:45:06;;;;;;;16.58;3.13;;;14.50;93.90;;;;;;6133428;23;20006;-85
2022/05/08 07:47:32;;;;;;;11.25;2.67;;;14.60;93.90;;;;;;6157641;23;20005;-85
2022/05/08 07:49:58;;;;;;;11.88;2.78;;;14.60;93.80;;;;;;6173393;23;20001;-85
2022/05/08 07:52:24;;;;;;;12.07;2.90;;;14.70;93.80;;;;;;6181301;23;20065;-85
2022/05/08 07:54:50;;;;;;;13.52;2.78;;;14.80;93.70;;;;;;6176724;23;20088;-86
2022/05/08 07:57:15;;;;;;;9.80;2.50;;;14.90;93.70;;;;;;6166343;23;20444;-85
2022/05/08 07:59:41;;;;;;;12.75;2.75;;;15.00;93.80;;;;;;6135475;23;20006;-85
2022/05/08 08:02:07;;;;;;;13.20;3.08;;;15.00;93.50;;;;;;6139032;23;20002;-85
2022/05/08 08:04:34;;;;;;;12.25;2.80;;;15.10;93.20;;;;;;6138050;23;20025;-82
2022/05/08 08:07:01;;;;;;;13.98;3.22;;;15.20;93.20;;;;;;6135992;23;20014;-85
2022/05/08 08:09:27;;;;;;;10.48;2.50;;;15.30;93.10;;;;;;6160001;23;20017;-84
2022/05/08 08:11:53;;;;;;;11.55;2.60;;;15.30;93.20;;;;;;6131835;23;20002;-84
2022/05/08 08:14:20;;;;;;;9.23;2.50;;;15.40;93.20;;;;;;6155902;23;20010;-87
2022/05/08 08:16:46;;;;;;;10.55;2.50;;;15.50;93.10;;;;;;6157890;23;20001;-88
2022/05/08 08:19:11;;;;;;;11.05;2.65;;;15.50;93.00;;;;;;6156144;23;20363;-87
2022/05/08 08:21:37;;;;;;;11.00;2.63;;;15.60;92.90;;;;;;6157341;23;20021;-87
2022/05/08 08:24:03;;;;;;;9.80;2.47;;;15.70;92.60;;;;;;6157200;23;20080;-88
2022/05/08 08:26:29;;;;;;;14.40;3.15;;;15.70;92.60;;;;;;6157202;23;20086;-87
2022/05/08 08:28:54;;;;;;;9.85;2.70;;;15.80;92.60;;;;;;6156745;23;20013;-84
2022/05/08 08:31:20;;;;;;;8.75;2.03;;;15.90;92.50;;;;;;6155926;23;20009;-84
2022/05/08 08:33:47;;;;;;;9.68;2.08;;;15.90;92.40;;;;;;6157649;23;19998;-82
2022/05/08 08:36:13;;;;;;;8.60;2.60;;;16.00;92.30;;;;;;6155406;23;19998;-82
2022/05/08 08:38:39;;;;;;;12.18;2.80;;;16.10;92.40;;;;;;6155886;23;20009;-83
2022/05/08 08:41:06;;;;;;;13.00;3.47;;;16.10;92.10;;;;;;6157230;23;20002;-83
2022/05/08 08:49:03;;;;;;;10.48;2.78;;;16.30;91.70;;;;;;6156933;23;20020;-82
2022/05/08 08:51:29;;;;;;;9.50;2.58;;;16.40;91.20;;;;;;6155222;23;20012;-83
2022/05/08 08:53:56;;;;;;;12.02;3.28;;;16.50;91.00;;;;;;6130401;23;20005;-84
2022/05/08 08:56:22;;;;;;;9.45;2.58;;;16.50;91.10;;;;;;6156483;23;20073;-85
2022/05/08 08:58:47;;;;;;;11.95;3.38;;;16.50;91.10;;;;;;6130647;23;20012;-86
2022/05/08 09:01:16;;;;;;;9.20;2.50;;;16.60;91.00;;;;;;6129910;23;20005;-84
2022/05/08 09:03:42;;;;;;;8.27;2.45;;;16.70;91.10;;;;;;6156244;23;20009;-84
2022/05/08 09:06:09;;;;;;;10.52;3.30;;;16.70;91.20;;;;;;6154647;23;20010;-85
2022/05/08 09:08:38;;;;;;;8.63;2.30;;;16.80;91.10;;;;;;6156433;23;20014;-87
2022/05/08 09:11:03;;;;;;;9.48;2.67;;;16.90;91.10;;;;;;6156942;23;20420;-83
2022/05/08 09:13:30;;;;;;;7.82;2.25;;;16.90;91.20;;;;;;6156661;23;20102;-84
2022/05/08 09:16:07;;;;;;;11.45;3.10;;;17.00;91.20;;;;;;6132388;23;20016;-84
2022/05/08 09:18:46;;;;;;;11.30;2.30;;;17.10;91.40;;;;;;6157942;23;20005;-85
2022/05/08 09:24:11;;;;;;;8.73;2.28;;;17.20;91.40;;;;;;6158044;23;20016;-85
2022/05/08 09:26:37;;;;;;;9.45;2.75;;;17.30;91.10;;;;;;6155890;23;20029;-85
2022/05/08 09:29:03;;;;;;;8.80;2.50;;;17.30;91.00;;;;;;6155697;23;20014;-84
2022/05/08 09:31:40;;;;;;;10.57;2.25;;;17.40;91.10;;;;;;6155767;23;20002;-87
2022/05/08 09:34:06;;;;;;;8.48;2.40;;;17.40;91.30;;;;;;6156506;23;20033;-84
2022/05/08 09:36:32;;;;;;;6.75;2.25;;;17.50;91.50;;;;;;6131707;23;20052;-83
2022/05/08 09:38:59;;;;;;;8.18;2.63;;;17.60;91.50;;;;;;6157274;23;20439;-86
2022/05/08 09:41:36;;;;;;;9.80;2.30;;;17.70;91.40;;;;;;6156337;23;20412;-86
2022/05/08 09:44:16;;;;;;;9.43;2.53;;;17.70;91.00;;;;;;6157177;23;20005;-85
2022/05/08 09:46:46;;;;;;;9.02;2.63;;;17.70;90.40;;;;;;6156301;23;20092;-85
2022/05/08 09:49:13;;;;;;;7.60;2.22;;;17.80;90.30;;;;;;6157915;23;20117;-85
2022/05/08 09:51:41;;;;;;;8.70;2.35;;;17.80;90.20;;;;;;6131418;23;20021;-85
2022/05/08 09:54:07;;;;;;;9.00;2.25;;;17.90;89.50;;;;;;6156032;23;20087;-85
2022/05/08 09:56:35;;;;;;;7.18;2.40;;;17.90;89.80;;;;;;6157061;23;20072;-86
2022/05/08 09:59:01;;;;;;;7.57;2.08;;;18.00;90.00;;;;;;6157550;23;20012;-85
2022/05/08 10:01:27;;;;;;;8.35;2.55;;;18.00;89.40;;;;;;6157396;23;20026;-85
2022/05/08 10:03:55;;;;;;;12.30;2.75;;;18.10;87.70;;;;;;6156365;23;20002;-85
2022/05/08 10:06:21;;;;;;;8.05;2.30;;;18.10;87.20;;;;;;6155965;23;20431;-85
2022/05/08 10:08:48;;;;;;;7.15;2.13;;;18.20;86.00;;;;;;6157127;23;20013;-85
2022/05/08 10:14:03;;;;;;;10.80;2.45;;;18.20;85.90;;;;;;6157063;23;20020;-85
2022/05/08 10:17:02;;;;;;;6.38;2.13;;;18.30;86.60;;;;;;6154670;23;20412;-87
2022/05/08 10:19:28;;;;;;;7.15;2.42;;;18.30;86.80;;;;;;6132600;23;20028;-84
2022/05/08 10:21:56;;;;;;;7.10;1.90;;;18.40;86.30;;;;;;6155761;23;20380;-85
2022/05/08 10:24:34;;;;;;;8.52;2.08;;;18.40;85.90;;;;;;6157305;23;20005;-85
2022/05/08 10:27:15;;;;;;;7.03;2.17;;;18.50;85.90;;;;;;6157325;23;20080;-84
2022/05/08 10:30:04;;;;;;;10.27;2.47;;;18.50;84.70;;;;;;6155497;23;20037;-85
2022/05/08 10:32:33;;;;;;;7.57;2.30;;;18.60;84.30;;;;;;6143183;23;20016;-85
2022/05/08 10:35:21;;;;;;;5.35;2.25;;;18.60;83.80;;;;;;6157298;23;20005;-83
2022/05/08 10:37:52;;;;;;;11.07;2.55;;;18.60;83.00;;;;;;6155930;23;20005;-83
2022/05/08 10:40:23;;;;;;;5.88;2.10;;;18.70;82.10;;;;;;6157477;23;19998;-82
2022/05/08 10:42:50;;;;;;;8.40;2.28;;;18.70;81.70;;;;;;6155366;23;20002;-82
2022/05/08 10:45:34;;;;;;;7.07;2.38;;;18.80;82.40;;;;;;6157149;23;20005;-82
2022/05/08 10:48:03;;;;;;;5.22;1.83;;;18.80;82.60;;;;;;6156991;23;20203;-83
2022/05/08 10:50:29;;;;;;;8.82;2.42;;;18.90;82.70;;;;;;6156873;23;19998;-83
2022/05/08 10:52:57;;;;;;;9.90;2.58;;;18.90;83.20;;;;;;6155628;23;19998;-83
2022/05/08 10:55:23;;;;;;;11.27;2.88;;;19.00;82.50;;;;;;6155734;23;20006;-85
2022/05/08 10:57:50;;;;;;;7.15;1.98;;;19.00;81.20;;;;;;6131434;23;20029;-83
2022/05/08 11:00:19;;;;;;;7.20;1.80;;;19.10;79.20;;;;;;6155765;23;20006;-83
2022/05/08 11:03:01;;;;;;;8.13;2.40;;;19.10;78.70;;;;;;6156833;23;20002;-83
2022/05/08 11:05:36;;;;;;;10.50;2.50;;;19.10;79.30;;;;;;6155513;23;20006;-84
2022/05/08 11:08:11;;;;;;;6.57;2.30;;;19.20;78.70;;;;;;6156312;23;20439;-83
2022/05/08 11:10:43;;;;;;;7.97;2.20;;;19.20;78.00;;;;;;6155992;23;20380;-84
2022/05/08 11:13:13;;;;;;;8.68;2.30;;;19.30;76.90;;;;;;6155563;23;20013;-84
2022/05/08 11:15:45;;;;;;;7.25;2.50;;;19.30;76.80;;;;;;6157141;23;20009;-82
2022/05/08 11:18:19;;;;;;;8.27;2.38;;;19.30;76.40;;;;;;6156450;23;20009;-83
2022/05/08 11:20:48;;;;;;;6.65;1.98;;;19.40;76.30;;;;;;6156787;23;20063;-83
2022/05/08 11:23:16;;;;;;;5.65;2.20;;;19.40;76.30;;;;;;6157666;23;20056;-83
2022/05/08 11:25:46;;;;;;;7.40;2.08;;;19.50;75.40;;;;;;6156502;23;20077;-83
2022/05/08 11:28:16;;;;;;;9.30;2.53;;;19.50;74.80;;;;;;6157836;23;20005;-84
2022/05/08 11:30:43;;;;;;;5.70;2.03;;;19.50;74.40;;;;;;6134070;23;20002;-83
2022/05/08 11:36:07;;;;;;;8.80;2.20;;;19.60;73.60;;;;;;6152787;23;20074;-85
2022/05/08 11:38:51;;;;;;;7.50;1.95;;;19.70;74.30;;;;;;6157575;23;20005;-86
2022/05/08 11:41:20;;;;;;;6.88;2.03;;;19.70;74.80;;;;;;6120928;23;20002;-85
2022/05/08 11:43:50;;;;;;;5.45;1.90;;;19.80;74.90;;;;;;6175002;23;20001;-86
2022/05/08 11:46:18;;;;;;;7.13;2.13;;;19.80;74.00;;;;;;6148727;23;20002;-83
2022/05/08 11:48:49;;;;;;;8.30;2.00;;;19.90;73.30;;;;;;6137963;23;20016;-85
2022/05/08 11:51:21;;;;;;;5.63;1.80;;;19.90;72.70;;;;;;6158300;23;20006;-85
2022/05/08 11:53:51;;;;;;;11.63;2.47;;;20.00;72.30;;;;;;6130667;23;20001;-85
2022/05/08 11:56:32;;;;;;;6.70;1.90;;;20.10;71.30;;;;;;6131589;23;20021;-84
2022/05/08 11:59:00;;;;;;;8.35;2.65;;;20.10;70.80;;;;;;6107266;23;20425;-85
2022/05/08 12:01:29;;;;;;;5.68;2.22;;;20.20;71.00;;;;;;6157264;23;20004;-85
2022/05/08 12:03:57;;;;;;;7.22;1.98;;;20.20;71.00;;;;;;6157113;23;20002;-85
2022/05/08 12:06:23;;;;;;;7.25;2.65;;;20.20;70.90;;;;;;6131384;23;20001;-85
2022/05/08 12:08:49;;;;;;;8.93;2.35;;;20.30;69.60;;;;;;6156469;23;20021;-86
2022/05/08 12:11:36;;;;;;;6.15;2.17;;;20.30;68.20;;;;;;6157201;23;20010;-85
2022/05/08 12:14:06;;;;;;;7.47;1.92;;;20.40;68.00;;;;;;6156673;23;20007;-85
2022/05/08 12:16:33;;;;;;;9.07;2.67;;;20.40;66.70;;;;;;6130381;23;19998;-86
2022/05/08 12:19:13;;;;;;;5.00;2.17;;;20.50;66.10;;;;;;6130318;23;20371;-84
2022/05/08 12:21:48;;;;;;;6.38;2.20;;;20.50;66.20;;;;;;6156666;23;20005;-85
2022/05/08 12:24:19;;;;;;;7.03;2.08;;;20.50;66.10;;;;;;6130541;23;20010;-85
2022/05/08 12:26:45;;;;;;;6.13;1.88;;;20.60;66.60;;;;;;6130693;23;20002;-85
2022/05/08 12:29:22;;;;;;;5.38;1.75;;;20.70;67.60;;;;;;6131631;23;20014;-85
2022/05/08 12:31:50;;;;;;;7.18;2.10;;;20.70;67.10;;;;;;6130031;23;20087;-85
2022/05/08 12:34:18;;;;;;;9.35;2.08;;;20.80;65.70;;;;;;6106761;23;20009;-84
2022/05/08 12:36:44;;;;;;;6.45;2.13;;;20.80;65.80;;;;;;6106675;23;20010;-85
2022/05/08 12:39:10;;;;;;;7.80;2.17;;;20.90;65.80;;;;;;6107111;23;20112;-85
2022/05/08 12:41:37;;;;;;;6.63;2.50;;;20.90;65.20;;;;;;6132123;23;20424;-86
2022/05/08 12:44:04;;;;;;;8.85;2.00;;;21.00;64.70;;;;;;6106501;23;20012;-85
2022/05/08 12:46:30;;;;;;;6.13;1.90;;;21.00;64.60;;;;;;6131102;23;20048;-86
2022/05/08 12:49:02;;;;;;;9.60;2.25;;;21.10;64.60;;;;;;6130156;23;20049;-86
2022/05/08 12:51:28;;;;;;;4.18;1.60;;;21.10;63.90;;;;;;6129650;23;20372;-86
2022/05/08 12:53:54;;;;;;;6.30;1.95;;;21.10;64.70;;;;;;6130086;23;20060;-83
2022/05/08 12:56:20;;;;;;;6.07;1.80;;;21.20;64.50;;;;;;6106023;23;20014;-83
2022/05/08 13:01:30;;;;;;;5.90;2.00;;;21.30;63.20;;;;;;6133971;23;20024;-86
2022/05/08 13:03:55;;;;;;;6.53;1.70;;;21.30;63.80;;;;;;6129878;23;20010;-86
2022/05/08 13:06:21;;;;;;;5.80;2.17;;;21.40;63.40;;;;;;6130354;23;20088;-83
2022/05/08 13:08:47;;;;;;;4.68;1.75;;;21.50;62.80;;;;;;6105881;23;20010;-84
2022/05/08 13:11:13;;;;;;;4.95;1.77;;;21.50;62.60;;;;;;6130689;23;20371;-83
2022/05/08 13:13:38;;;;;;;5.10;1.88;;;21.60;62.60;;;;;;6156244;23;20016;-89
2022/05/08 13:16:05;;;;;;;5.05;1.40;;;21.60;61.70;;;;;;6106357;23;20009;-84
2022/05/08 13:18:30;;;;;;;5.82;1.63;;;21.70;61.40;;;;;;6106195;23;20093;-84
2022/05/08 13:20:56;;;;;;;6.10;1.90;;;21.70;60.90;;;;;;6148729;23;20010;-84
2022/05/08 13:23:22;;;;;;;4.55;1.80;;;21.80;60.40;;;;;;6154500;23;20006;-84
2022/05/08 13:25:47;;;;;;;7.40;1.95;;;21.80;59.20;;;;;;6130339;23;20005;-84
2022/05/08 13:28:13;;;;;;;6.88;2.00;;;21.90;58.80;;;;;;6130515;23;20109;-84
2022/05/08 13:30:39;;;;;;;6.05;2.28;;;21.90;58.60;;;;;;6154889;23;20017;-85
2022/05/08 13:33:04;;;;;;;4.00;1.52;;;21.90;58.70;;;;;;6154838;23;20017;-85
2022/05/08 13:35:30;;;;;;;6.45;1.88;;;22.00;58.70;;;;;;6156437;23;20012;-85
2022/05/08 13:37:56;;;;;;;5.38;1.70;;;22.00;58.80;;;;;;6156307;23;20365;-84
2022/05/08 13:40:21;;;;;;;5.32;1.55;;;22.10;58.90;;;;;;6131510;23;20002;-85
2022/05/08 13:42:47;;;;;;;5.07;1.60;;;22.10;57.90;;;;;;6156771;23;20001;-84
2022/05/08 13:45:12;;;;;;;4.97;1.60;;;22.20;57.20;;;;;;6155166;23;20001;-84